Time;durP1;ratioP1;P1;durP2;ratioP2;P2;SDS_P1;SDS_P2;PMS_P1;PMS_P2;Temp;Humidity;BMP_temperature;BMP_pressure;BME280_temperature;BME280_humidity;BME280_pressure;Samples;Min_cycle;Max_cycle;Signal;HPM_P1;HPM_P2
2021/08/10 00:01:31;;;;;;;3.50;3.20;;;16.30;99.90;;;;;;4995462;28;20283;-64
2021/08/10 00:03:56;;;;;;;3.53;3.30;;;16.30;99.90;;;;;;4995366;28;20211;-64
2021/08/10 00:06:22;;;;;;;3.83;3.53;;;16.20;99.90;;;;;;4995569;28;20239;-65
2021/08/10 00:08:47;;;;;;;5.73;3.17;;;16.20;99.90;;;;;;4995410;28;20270;-64
2021/08/10 00:11:13;;;;;;;3.30;3.03;;;16.00;99.90;;;;;;4995531;28;20215;-64
2021/08/10 00:13:38;;;;;;;3.57;3.27;;;16.00;99.90;;;;;;4995863;28;20298;-64
2021/08/10 00:16:04;;;;;;;4.73;3.70;;;16.00;99.90;;;;;;4995676;28;20652;-64
2021/08/10 00:18:30;;;;;;;4.53;3.67;;;16.00;99.90;;;;;;4995078;28;20657;-65
2021/08/10 00:20:55;;;;;;;3.80;3.10;;;16.00;99.90;;;;;;4995636;28;20434;-65
2021/08/10 00:23:21;;;;;;;5.10;4.60;;;15.90;99.90;;;;;;4995282;28;20207;-65
2021/08/10 00:25:47;;;;;;;3.63;3.33;;;16.00;99.90;;;;;;4995492;28;20226;-64
2021/08/10 00:28:14;;;;;;;3.70;3.40;;;16.10;99.90;;;;;;4995287;28;20551;-64
2021/08/10 00:30:41;;;;;;;4.27;3.40;;;16.10;99.90;;;;;;4995210;28;20422;-64
2021/08/10 00:33:08;;;;;;;4.60;3.33;;;15.90;99.90;;;;;;4995306;28;20423;-64
2021/08/10 00:35:33;;;;;;;4.20;3.80;;;15.80;99.90;;;;;;4995325;28;20429;-65
2021/08/10 00:37:59;;;;;;;5.40;3.40;;;15.70;99.90;;;;;;4994645;28;20446;-65
2021/08/10 00:40:25;;;;;;;5.20;3.33;;;15.60;99.90;;;;;;4994953;28;20183;-64
2021/08/10 00:42:50;;;;;;;4.17;3.53;;;15.60;99.90;;;;;;4995136;28;20175;-64
2021/08/10 00:45:16;;;;;;;4.83;4.40;;;15.60;99.90;;;;;;4995057;28;20544;-65
2021/08/10 00:47:41;;;;;;;6.50;3.33;;;15.70;99.90;;;;;;4995001;28;20176;-63
2021/08/10 00:50:08;;;;;;;4.10;3.80;;;15.80;99.90;;;;;;4994555;28;20215;-64
2021/08/10 00:52:33;;;;;;;3.70;3.40;;;15.80;99.90;;;;;;4994552;28;20671;-64
2021/08/10 00:55:02;;;;;;;4.00;3.70;;;15.80;99.90;;;;;;4994699;28;20549;-64
2021/08/10 00:57:28;;;;;;;8.40;4.10;;;15.80;99.90;;;;;;4994903;28;20172;-64
2021/08/10 00:59:53;;;;;;;3.90;3.43;;;15.80;99.90;;;;;;4994069;28;20932;-65
2021/08/10 01:02:19;;;;;;;6.27;3.73;;;15.70;99.90;;;;;;4994457;28;20195;-64
2021/08/10 01:04:44;;;;;;;5.70;3.80;;;15.70;99.90;;;;;;4993313;28;20195;-64
2021/08/10 01:07:15;;;;;;;4.20;3.60;;;15.60;99.90;;;;;;4977263;28;20261;-64
2021/08/10 01:10:14;;;;;;;4.20;3.50;;;15.60;99.90;;;;;;4994216;28;20183;-64
2021/08/10 01:12:47;;;;;;;4.30;3.90;;;15.60;99.90;;;;;;4994549;28;20435;-64
2021/08/10 01:15:15;;;;;;;4.50;4.10;;;15.60;99.90;;;;;;4994196;28;20467;-64
2021/08/10 01:18:00;;;;;;;4.60;3.03;;;15.50;99.90;;;;;;4994432;28;20430;-64
2021/08/10 01:21:10;;;;;;;4.10;3.70;;;15.30;99.90;;;;;;4994231;28;20960;-64
2021/08/10 01:23:36;;;;;;;4.53;4.13;;;15.40;99.90;;;;;;4989341;28;21063;-64
2021/08/10 01:26:27;;;;;;;5.60;4.07;;;15.30;99.90;;;;;;4976906;28;20501;-64
2021/08/10 01:29:12;;;;;;;3.57;3.27;;;15.30;99.90;;;;;;4993756;28;20439;-64
2021/08/10 01:31:42;;;;;;;4.70;4.23;;;15.30;99.90;;;;;;4989483;28;20979;-65
2021/08/10 01:34:27;;;;;;;4.40;3.60;;;15.20;99.90;;;;;;4993816;28;20886;-65
2021/08/10 01:37:02;;;;;;;4.57;3.70;;;15.20;99.90;;;;;;4994119;28;20430;-64
2021/08/10 01:39:30;;;;;;;4.17;3.73;;;15.10;99.90;;;;;;4975980;28;20434;-64
2021/08/10 01:41:58;;;;;;;3.87;3.57;;;15.10;99.90;;;;;;4993788;28;20422;-64
2021/08/10 01:44:26;;;;;;;6.37;4.10;;;15.10;99.90;;;;;;4993635;28;20443;-64
2021/08/10 01:46:52;;;;;;;4.83;3.70;;;15.10;99.90;;;;;;4993780;28;20957;-65
2021/08/10 01:49:18;;;;;;;4.10;3.80;;;15.10;99.90;;;;;;4993461;28;20442;-64
2021/08/10 01:51:45;;;;;;;4.20;3.80;;;15.10;99.90;;;;;;4993465;28;20449;-65
2021/08/10 01:54:12;;;;;;;3.97;3.57;;;15.10;99.90;;;;;;4993707;28;20490;-64
2021/08/10 01:56:40;;;;;;;5.93;3.70;;;15.10;99.90;;;;;;4993653;28;20852;-64
2021/08/10 01:59:07;;;;;;;4.67;4.27;;;14.90;99.90;;;;;;4992850;28;21004;-65
2021/08/10 02:01:34;;;;;;;4.20;3.80;;;14.70;99.90;;;;;;4993524;28;20470;-64
2021/08/10 02:04:02;;;;;;;4.10;3.70;;;14.50;99.90;;;;;;4993372;28;20839;-64
2021/08/10 02:06:29;;;;;;;4.43;4.13;;;14.40;99.90;;;;;;4993475;28;20559;-64
2021/08/10 02:08:56;;;;;;;4.07;3.67;;;14.60;99.90;;;;;;4993414;28;20496;-64
2021/08/10 02:11:25;;;;;;;4.90;4.10;;;14.70;99.90;;;;;;4993322;28;20446;-64
2021/08/10 02:13:53;;;;;;;3.87;3.57;;;14.70;99.90;;;;;;4993015;28;20470;-64
2021/08/10 02:16:19;;;;;;;5.97;3.90;;;14.80;99.90;;;;;;4993053;28;20526;-65
2021/08/10 02:18:48;;;;;;;4.60;4.20;;;14.80;99.90;;;;;;4992993;28;20446;-64
2021/08/10 02:21:35;;;;;;;4.80;4.40;;;14.70;99.90;;;;;;4993212;28;20449;-65
2021/08/10 02:24:19;;;;;;;4.23;3.93;;;14.70;99.90;;;;;;4993026;28;20463;-65
2021/08/10 02:26:49;;;;;;;4.03;3.63;;;14.60;99.90;;;;;;4993115;28;20960;-64
2021/08/10 02:29:16;;;;;;;6.10;4.53;;;14.60;99.90;;;;;;4992428;28;20439;-64
2021/08/10 02:31:44;;;;;;;7.83;4.20;;;14.60;99.90;;;;;;4989138;28;20537;-64
2021/08/10 02:34:10;;;;;;;4.30;3.40;;;14.60;99.90;;;;;;4992841;28;20458;-64
2021/08/10 02:36:37;;;;;;;8.30;4.50;;;14.70;99.90;;;;;;4992838;28;20453;-65
2021/08/10 02:39:06;;;;;;;5.27;4.17;;;14.70;99.90;;;;;;4992300;28;20952;-65
2021/08/10 02:41:36;;;;;;;4.43;3.60;;;14.60;99.90;;;;;;4993115;28;20426;-65
2021/08/10 02:44:03;;;;;;;4.97;4.43;;;14.60;99.90;;;;;;4992540;28;20516;-65
2021/08/10 02:46:29;;;;;;;5.13;3.67;;;14.60;99.90;;;;;;4992779;28;21053;-65
2021/08/10 02:48:54;;;;;;;4.00;3.57;;;14.60;99.90;;;;;;4992496;28;20470;-64
2021/08/10 02:51:20;;;;;;;4.70;4.30;;;14.60;99.90;;;;;;4992459;28;20317;-65
2021/08/10 02:53:45;;;;;;;4.50;4.10;;;14.50;99.90;;;;;;4992142;28;20207;-64
2021/08/10 02:56:27;;;;;;;5.27;4.23;;;14.40;99.90;;;;;;4992726;28;20175;-65
2021/08/10 02:59:01;;;;;;;4.30;3.97;;;14.50;99.90;;;;;;4991885;28;20528;-64
2021/08/10 03:01:33;;;;;;;5.37;3.97;;;14.40;99.90;;;;;;4983346;28;20457;-64
2021/08/10 03:04:01;;;;;;;4.80;3.87;;;14.50;99.90;;;;;;4992229;28;20840;-64
2021/08/10 03:06:30;;;;;;;8.50;4.40;;;14.50;99.90;;;;;;4992652;28;20465;-64
2021/08/10 03:08:59;;;;;;;4.47;4.00;;;14.50;99.90;;;;;;4992169;28;20545;-64
2021/08/10 03:11:28;;;;;;;4.20;3.70;;;14.60;99.90;;;;;;4992661;28;20527;-64
2021/08/10 03:13:55;;;;;;;6.90;3.70;;;14.60;99.90;;;;;;4992052;28;20506;-65
2021/08/10 03:16:23;;;;;;;5.57;4.10;;;14.60;99.90;;;;;;4992562;28;20418;-65
2021/08/10 03:18:51;;;;;;;4.93;4.50;;;14.70;99.90;;;;;;4991367;28;20447;-64
2021/08/10 03:21:20;;;;;;;5.90;5.13;;;14.70;99.90;;;;;;4992189;28;20485;-64
2021/08/10 03:23:47;;;;;;;7.97;4.90;;;14.70;99.90;;;;;;4992327;28;20442;-64
2021/08/10 03:26:14;;;;;;;4.93;4.07;;;14.70;99.90;;;;;;4978948;28;20466;-65
2021/08/10 03:28:41;;;;;;;5.13;4.50;;;14.70;99.90;;;;;;4994147;28;20533;-64
2021/08/10 03:31:09;;;;;;;4.80;4.40;;;14.60;99.90;;;;;;4981279;28;20427;-64
2021/08/10 03:33:35;;;;;;;4.37;4.00;;;14.60;99.90;;;;;;4978642;28;20796;-64
2021/08/10 03:36:04;;;;;;;4.70;3.73;;;14.60;99.90;;;;;;4996355;28;20434;-64
2021/08/10 03:38:30;;;;;;;5.47;4.97;;;14.60;99.90;;;;;;4996069;28;20484;-65
2021/08/10 03:40:57;;;;;;;6.30;5.10;;;14.50;99.90;;;;;;4995916;28;20450;-64
2021/08/10 03:43:23;;;;;;;4.00;3.60;;;14.50;99.90;;;;;;4995962;28;20485;-65
2021/08/10 03:45:52;;;;;;;5.40;4.80;;;14.50;99.90;;;;;;4995934;28;20462;-65
2021/08/10 03:48:19;;;;;;;4.87;4.37;;;14.50;99.90;;;;;;4996113;28;20420;-65
2021/08/10 03:50:46;;;;;;;5.80;4.67;;;14.50;99.90;;;;;;4996576;28;20794;-64
2021/08/10 03:53:12;;;;;;;6.80;4.90;;;14.50;99.90;;;;;;4996800;28;20493;-65
2021/08/10 03:55:39;;;;;;;5.10;4.40;;;14.50;99.90;;;;;;5002307;28;20442;-65
2021/08/10 03:58:06;;;;;;;5.60;5.07;;;14.50;99.90;;;;;;5003927;28;20496;-65
2021/08/10 04:00:40;;;;;;;6.60;5.43;;;14.50;99.90;;;;;;5004464;28;20478;-65
2021/08/10 04:03:10;;;;;;;8.47;4.57;;;14.50;99.90;;;;;;5000599;28;20438;-64
2021/08/10 04:05:43;;;;;;;7.40;4.63;;;14.60;99.90;;;;;;5004825;28;20465;-65
2021/08/10 04:08:14;;;;;;;4.70;4.10;;;14.60;99.90;;;;;;5004507;28;20453;-65
2021/08/10 04:10:42;;;;;;;5.57;4.27;;;14.60;99.90;;;;;;5003879;28;20438;-64
2021/08/10 04:13:09;;;;;;;5.40;4.67;;;14.60;99.90;;;;;;5003816;28;20427;-65
2021/08/10 04:15:49;;;;;;;5.80;4.43;;;14.70;99.90;;;;;;5002342;28;20465;-65
2021/08/10 04:18:17;;;;;;;5.73;4.20;;;14.70;99.90;;;;;;4997546;28;20948;-65
2021/08/10 04:20:50;;;;;;;8.80;6.63;;;14.60;99.90;;;;;;4995265;28;20442;-65
2021/08/10 04:23:16;;;;;;;6.77;4.57;;;14.70;99.90;;;;;;4994809;28;20488;-65
2021/08/10 04:25:42;;;;;;;4.20;3.83;;;14.60;99.90;;;;;;4995118;28;20826;-65
2021/08/10 04:28:08;;;;;;;6.50;4.53;;;14.60;99.90;;;;;;4995183;28;21004;-65
2021/08/10 04:30:33;;;;;;;9.30;5.03;;;14.60;99.90;;;;;;4994681;28;20550;-65
2021/08/10 04:32:59;;;;;;;5.10;4.67;;;14.60;99.90;;;;;;4994936;28;20183;-65
2021/08/10 04:35:25;;;;;;;6.90;3.87;;;14.70;99.90;;;;;;4994607;28;20258;-65
2021/08/10 04:37:51;;;;;;;7.90;4.03;;;14.90;99.90;;;;;;4994791;28;20183;-65
2021/08/10 04:40:17;;;;;;;6.10;4.20;;;14.90;99.90;;;;;;4993113;28;20533;-65
2021/08/10 04:42:42;;;;;;;5.20;4.70;;;14.90;99.90;;;;;;4995216;28;20237;-65
2021/08/10 04:45:09;;;;;;;5.00;4.60;;;15.00;99.90;;;;;;4993513;28;20617;-65
2021/08/10 04:47:34;;;;;;;9.63;4.70;;;14.90;99.90;;;;;;4976500;28;20187;-65
2021/08/10 04:50:00;;;;;;;5.10;4.60;;;14.80;99.90;;;;;;4980551;28;20835;-65
2021/08/10 04:52:25;;;;;;;6.77;5.87;;;14.80;99.90;;;;;;4995050;28;20543;-65
2021/08/10 04:54:51;;;;;;;10.83;4.70;;;14.90;99.90;;;;;;4994884;28;20681;-65
2021/08/10 04:57:16;;;;;;;5.53;4.30;;;15.00;99.90;;;;;;4994811;28;20254;-65
2021/08/10 04:59:42;;;;;;;5.40;4.33;;;15.20;99.90;;;;;;4994629;28;20184;-65
2021/08/10 05:02:07;;;;;;;8.87;4.90;;;15.20;99.90;;;;;;4989812;28;20172;-65
2021/08/10 05:04:33;;;;;;;4.70;4.30;;;15.30;99.90;;;;;;4975277;28;20200;-65
2021/08/10 05:07:01;;;;;;;5.40;4.90;;;15.50;99.90;;;;;;4975327;28;20328;-65
2021/08/10 05:09:27;;;;;;;5.90;4.63;;;15.60;99.90;;;;;;4974906;28;20172;-65
2021/08/10 05:11:52;;;;;;;6.40;4.83;;;15.40;99.90;;;;;;4975196;28;20426;-65
2021/08/10 05:14:18;;;;;;;8.60;6.17;;;15.40;99.90;;;;;;4974921;28;20212;-65
2021/08/10 05:16:43;;;;;;;5.63;4.60;;;15.50;99.90;;;;;;4975111;28;20231;-65
2021/08/10 05:19:09;;;;;;;7.90;4.50;;;15.50;99.90;;;;;;4974869;28;20518;-65
2021/08/10 05:21:35;;;;;;;4.73;4.33;;;15.60;99.90;;;;;;4975142;28;20666;-65
2021/08/10 05:24:00;;;;;;;7.70;4.60;;;15.80;99.90;;;;;;4974886;28;20537;-65
2021/08/10 05:26:26;;;;;;;4.70;4.30;;;15.90;99.90;;;;;;4974908;28;20429;-65
2021/08/10 05:28:51;;;;;;;6.60;4.13;;;15.80;99.90;;;;;;4974978;28;20169;-65
2021/08/10 05:31:17;;;;;;;4.30;3.87;;;15.90;99.90;;;;;;4991315;28;20258;-65
2021/08/10 05:33:42;;;;;;;4.70;4.30;;;16.10;99.90;;;;;;4994184;28;20665;-65
2021/08/10 05:36:08;;;;;;;4.90;4.33;;;16.30;99.90;;;;;;4994214;28;20176;-65
2021/08/10 05:38:33;;;;;;;4.20;3.77;;;16.40;99.90;;;;;;4989539;28;20183;-65
2021/08/10 05:40:59;;;;;;;6.20;3.97;;;16.50;99.90;;;;;;4974725;28;20173;-65
2021/08/10 05:43:25;;;;;;;9.03;4.50;;;16.50;99.90;;;;;;4974549;28;20200;-65
2021/08/10 05:45:50;;;;;;;5.57;4.77;;;16.60;99.90;;;;;;4974466;28;20193;-65
2021/08/10 05:48:16;;;;;;;9.50;4.20;;;16.70;99.90;;;;;;4974401;28;20243;-65
2021/08/10 05:50:42;;;;;;;9.63;5.30;;;16.90;99.90;;;;;;4984121;28;20254;-65
2021/08/10 05:53:07;;;;;;;5.00;4.50;;;16.90;99.90;;;;;;4979901;28;20176;-66
2021/08/10 05:55:33;;;;;;;8.57;4.70;;;17.00;99.90;;;;;;4975045;28;20540;-65
2021/08/10 05:57:58;;;;;;;7.30;4.40;;;17.10;99.90;;;;;;4993743;28;20222;-65
2021/08/10 06:00:24;;;;;;;23.83;20.97;;;17.10;99.90;;;;;;4992904;28;20259;-65
2021/08/10 06:02:49;;;;;;;11.97;10.00;;;17.10;99.90;;;;;;4993130;28;20194;-65
2021/08/10 06:05:15;;;;;;;6.00;5.00;;;17.20;99.90;;;;;;4993054;28;20227;-65
2021/08/10 06:07:40;;;;;;;6.47;4.70;;;17.20;99.90;;;;;;4993324;28;20187;-65
2021/08/10 06:10:06;;;;;;;9.70;5.63;;;17.20;99.90;;;;;;4993215;28;20167;-66
2021/08/10 06:12:33;;;;;;;5.23;4.37;;;17.40;99.90;;;;;;4993581;28;20565;-65
2021/08/10 06:14:59;;;;;;;8.00;4.20;;;17.50;99.90;;;;;;4993520;28;20226;-66
2021/08/10 06:17:25;;;;;;;6.10;4.47;;;17.70;99.90;;;;;;4993401;28;20856;-66
2021/08/10 06:19:50;;;;;;;5.10;4.70;;;17.80;99.90;;;;;;4993063;28;20455;-65
2021/08/10 06:22:16;;;;;;;5.20;3.70;;;18.00;99.90;;;;;;4993396;28;20262;-65
2021/08/10 06:24:41;;;;;;;4.33;4.03;;;18.20;99.90;;;;;;4993184;28;20206;-66
2021/08/10 06:27:07;;;;;;;6.53;5.77;;;18.30;99.90;;;;;;4993192;28;20257;-65
2021/08/10 06:29:32;;;;;;;9.63;4.40;;;18.30;99.90;;;;;;4992956;28;20168;-65
2021/08/10 06:31:58;;;;;;;5.53;4.77;;;18.40;99.90;;;;;;4993273;28;20186;-65
2021/08/10 06:34:23;;;;;;;5.50;4.60;;;18.40;99.90;;;;;;4992596;28;20286;-66
2021/08/10 06:36:49;;;;;;;6.10;4.37;;;18.70;99.90;;;;;;4992475;28;20257;-65
2021/08/10 06:39:14;;;;;;;9.70;4.53;;;18.80;99.90;;;;;;4992678;28;20167;-66
2021/08/10 06:41:40;;;;;;;7.17;4.90;;;19.00;99.90;;;;;;4968636;28;20194;-68
2021/08/10 06:44:05;;;;;;;7.67;4.10;;;19.20;99.90;;;;;;4951065;28;20207;-67
2021/08/10 06:46:32;;;;;;;5.93;4.07;;;19.30;99.90;;;;;;4973490;28;20199;-66
2021/08/10 06:48:58;;;;;;;4.67;4.13;;;19.40;99.90;;;;;;4984550;28;20179;-66
2021/08/10 06:51:23;;;;;;;5.03;4.10;;;19.60;99.90;;;;;;4985179;28;21018;-68
2021/08/10 06:53:49;;;;;;;5.50;4.07;;;19.80;99.90;;;;;;4974983;28;20454;-68
2021/08/10 06:56:15;;;;;;;3.60;3.40;;;20.00;99.90;;;;;;4992123;28;20653;-69
2021/08/10 06:58:40;;;;;;;3.87;3.43;;;20.10;99.90;;;;;;4992437;28;20672;-69
2021/08/10 07:01:06;;;;;;;4.23;3.80;;;20.20;99.90;;;;;;4988198;28;20672;-69
2021/08/10 07:03:34;;;;;;;3.40;3.10;;;20.40;99.90;;;;;;4992055;28;20191;-69
2021/08/10 07:06:00;;;;;;;6.03;3.60;;;20.80;99.90;;;;;;4992600;28;20195;-69
2021/08/10 07:08:25;;;;;;;4.50;3.40;;;21.40;99.90;;;;;;4982582;28;20419;-70
2021/08/10 07:10:51;;;;;;;7.37;3.90;;;21.90;99.90;;;;;;4970561;28;20278;-69
2021/08/10 07:13:16;;;;;;;9.53;5.47;;;22.40;99.90;;;;;;5004078;28;20207;-67
2021/08/10 07:15:42;;;;;;;5.10;3.80;;;22.50;99.90;;;;;;4996342;28;20230;-67
2021/08/10 07:18:08;;;;;;;4.33;3.13;;;22.70;99.90;;;;;;4992201;28;20633;-66
2021/08/10 07:20:33;;;;;;;5.20;3.40;;;22.70;99.90;;;;;;4990728;28;20172;-66
2021/08/10 07:22:59;;;;;;;4.17;3.30;;;22.80;99.90;;;;;;4979565;28;20573;-67
2021/08/10 07:25:24;;;;;;;3.33;2.90;;;23.00;99.90;;;;;;4982126;28;20204;-68
2021/08/10 07:27:50;;;;;;;4.03;3.20;;;23.30;99.90;;;;;;4972943;28;20555;-66
2021/08/10 07:30:16;;;;;;;7.67;3.30;;;23.50;99.90;;;;;;4972559;28;20618;-66
2021/08/10 07:32:41;;;;;;;3.67;3.10;;;23.30;99.90;;;;;;4988584;28;20328;-68
2021/08/10 07:35:08;;;;;;;4.37;3.73;;;23.10;99.90;;;;;;4991953;28;20210;-67
2021/08/10 07:37:38;;;;;;;5.70;3.23;;;22.90;99.90;;;;;;4992135;28;20206;-67
2021/08/10 07:40:04;;;;;;;6.47;5.63;;;22.50;99.90;;;;;;4992223;28;20411;-68
2021/08/10 07:42:30;;;;;;;5.20;3.10;;;22.50;99.90;;;;;;4989339;28;20430;-67
2021/08/10 07:44:55;;;;;;;4.60;2.77;;;22.60;99.90;;;;;;4992242;28;20438;-67
2021/08/10 07:47:21;;;;;;;2.93;2.63;;;22.80;99.90;;;;;;4991849;28;20641;-66
2021/08/10 07:49:47;;;;;;;3.47;2.97;;;22.50;99.90;;;;;;4991969;28;20174;-66
2021/08/10 07:52:12;;;;;;;3.30;3.00;;;22.30;99.90;;;;;;4976052;28;20746;-66
2021/08/10 07:54:38;;;;;;;4.93;3.00;;;22.20;99.90;;;;;;4975261;28;20207;-67
2021/08/10 07:57:04;;;;;;;5.50;2.70;;;22.30;99.90;;;;;;4984714;28;20692;-67
2021/08/10 07:59:30;;;;;;;3.70;2.60;;;22.20;99.90;;;;;;4975459;28;20627;-68
2021/08/10 08:01:55;;;;;;;3.10;2.80;;;22.50;99.90;;;;;;4974357;28;20458;-67
2021/08/10 08:04:21;;;;;;;4.90;3.00;;;23.10;99.90;;;;;;4977296;28;20735;-67
2021/08/10 08:06:47;;;;;;;4.63;2.70;;;23.00;99.90;;;;;;4979153;28;20204;-67
2021/08/10 08:09:12;;;;;;;4.10;2.97;;;23.00;99.90;;;;;;4981628;28;20192;-67
2021/08/10 08:11:38;;;;;;;4.80;3.90;;;23.10;99.90;;;;;;4976634;28;20605;-66
2021/08/10 08:14:03;;;;;;;4.70;3.13;;;22.80;99.90;;;;;;4980753;28;20233;-66
2021/08/10 08:16:29;;;;;;;3.90;3.40;;;22.50;99.90;;;;;;4979995;28;20177;-66
2021/08/10 08:18:54;;;;;;;3.23;2.90;;;22.40;99.90;;;;;;4975863;28;20180;-67
2021/08/10 08:21:20;;;;;;;3.87;3.47;;;22.30;99.90;;;;;;4958669;28;20188;-67
2021/08/10 08:23:45;;;;;;;3.63;3.33;;;22.50;99.90;;;;;;4986000;28;20207;-67
2021/08/10 08:26:11;;;;;;;4.07;2.80;;;22.70;99.90;;;;;;4994747;28;20203;-67
2021/08/10 08:28:37;;;;;;;3.90;3.40;;;22.50;99.90;;;;;;4995142;28;20657;-68
2021/08/10 08:31:03;;;;;;;4.50;3.20;;;22.30;99.90;;;;;;4980536;28;20176;-68
2021/08/10 08:33:29;;;;;;;3.50;3.20;;;22.30;99.90;;;;;;4995033;28;20450;-67
2021/08/10 08:35:54;;;;;;;4.63;2.93;;;22.50;99.90;;;;;;4994793;28;20179;-67
2021/08/10 08:38:20;;;;;;;4.53;3.33;;;22.80;99.90;;;;;;4995244;28;20681;-67
2021/08/10 08:40:47;;;;;;;3.53;3.30;;;22.60;99.90;;;;;;4991710;28;20814;-68
2021/08/10 08:43:16;;;;;;;3.50;3.20;;;22.30;99.90;;;;;;4992463;28;20469;-67
2021/08/10 08:45:42;;;;;;;4.20;2.97;;;22.30;99.90;;;;;;4982502;28;20489;-64
2021/08/10 08:48:12;;;;;;;4.60;3.13;;;22.90;99.90;;;;;;4975581;28;20446;-64
2021/08/10 08:50:38;;;;;;;4.40;3.30;;;23.60;99.90;;;;;;4973646;28;20427;-66
2021/08/10 08:53:06;;;;;;;2.70;2.50;;;24.10;99.90;;;;;;4976774;28;20523;-65
2021/08/10 08:55:32;;;;;;;3.33;3.03;;;24.60;99.90;;;;;;4975736;28;20482;-65
2021/08/10 08:57:59;;;;;;;3.60;2.80;;;25.00;99.90;;;;;;4975394;28;20424;-65
2021/08/10 09:00:25;;;;;;;2.93;2.73;;;24.90;99.90;;;;;;4975148;28;20723;-67
2021/08/10 09:02:51;;;;;;;4.23;3.10;;;25.40;99.90;;;;;;4972639;28;20784;-64
2021/08/10 09:05:16;;;;;;;4.03;2.57;;;25.00;99.90;;;;;;4975347;28;20242;-65
2021/08/10 09:07:42;;;;;;;2.70;2.50;;;24.90;99.90;;;;;;4977875;28;20179;-65
2021/08/10 09:10:11;;;;;;;3.40;2.40;;;24.80;99.90;;;;;;4985689;28;20183;-65
2021/08/10 09:12:50;;;;;;;3.27;2.47;;;25.00;99.90;;;;;;4975937;28;20497;-65
2021/08/10 09:15:37;;;;;;;3.17;2.23;;;25.20;99.90;;;;;;4973493;28;20920;-65
2021/08/10 09:18:15;;;;;;;2.70;2.50;;;25.20;99.90;;;;;;4989135;28;20430;-65
2021/08/10 09:20:56;;;;;;;3.07;2.87;;;25.10;99.90;;;;;;4987169;28;20423;-65
2021/08/10 09:23:42;;;;;;;2.50;2.30;;;25.00;99.90;;;;;;4988374;28;20454;-65
2021/08/10 09:26:13;;;;;;;3.40;2.50;;;25.40;99.90;;;;;;4972387;28;20839;-65
2021/08/10 09:28:39;;;;;;;2.73;2.47;;;25.60;99.90;;;;;;4988314;28;20433;-66
2021/08/10 09:31:28;;;;;;;6.20;3.07;;;26.20;99.30;;;;;;4980556;28;20430;-66
2021/08/10 09:33:56;;;;;;;2.83;2.63;;;26.60;98.90;;;;;;4990458;28;20453;-65
2021/08/10 09:36:22;;;;;;;3.17;2.93;;;26.70;99.00;;;;;;4990940;28;20430;-66
2021/08/10 09:38:48;;;;;;;4.20;2.43;;;26.40;98.90;;;;;;4989823;28;20433;-66
2021/08/10 09:41:17;;;;;;;2.53;2.33;;;26.30;99.60;;;;;;4985179;28;20426;-66
2021/08/10 09:43:43;;;;;;;3.40;2.50;;;26.30;98.10;;;;;;4990044;28;20453;-65
2021/08/10 09:46:14;;;;;;;2.80;2.40;;;26.00;96.90;;;;;;4990732;28;20839;-66
2021/08/10 09:48:49;;;;;;;2.50;2.30;;;25.80;96.80;;;;;;4989158;28;20798;-66
2021/08/10 09:51:17;;;;;;;2.30;2.10;;;25.60;96.80;;;;;;4982173;28;20431;-66
2021/08/10 09:54:14;;;;;;;4.00;2.33;;;25.80;96.50;;;;;;4971078;28;20451;-65
2021/08/10 09:56:59;;;;;;;2.47;2.27;;;25.80;96.90;;;;;;4972280;28;20440;-65
2021/08/10 09:59:46;;;;;;;3.70;2.17;;;26.20;95.90;;;;;;4989884;28;20434;-65
2021/08/10 10:02:22;;;;;;;3.53;2.07;;;26.30;95.40;;;;;;4974131;28;20941;-66
2021/08/10 10:04:52;;;;;;;1.93;1.83;;;27.20;95.50;;;;;;4971036;28;20447;-66
2021/08/10 10:07:18;;;;;;;3.33;2.60;;;27.40;94.40;;;;;;4970852;28;20464;-65
2021/08/10 10:09:44;;;;;;;2.63;2.00;;;27.10;94.90;;;;;;4977733;28;20441;-66
2021/08/10 10:12:11;;;;;;;4.83;3.63;;;27.40;94.20;;;;;;4981766;28;20461;-65
2021/08/10 10:14:38;;;;;;;2.50;2.30;;;27.00;93.20;;;;;;4990684;28;20238;-66
2021/08/10 10:17:05;;;;;;;3.13;2.83;;;27.30;93.60;;;;;;4978580;28;20435;-66
2021/08/10 10:19:34;;;;;;;2.97;2.60;;;27.50;94.00;;;;;;4971032;28;20750;-66
2021/08/10 10:22:03;;;;;;;6.00;3.33;;;27.70;93.10;;;;;;4973163;28;20435;-66
2021/08/10 10:24:34;;;;;;;2.40;2.20;;;27.90;92.80;;;;;;4979529;28;20466;-64
2021/08/10 10:27:03;;;;;;;3.37;2.90;;;28.00;92.70;;;;;;4990574;28;20501;-65
2021/08/10 10:29:29;;;;;;;3.67;2.30;;;27.70;92.80;;;;;;4988865;28;20418;-65
2021/08/10 10:31:55;;;;;;;10.97;4.63;;;28.10;93.40;;;;;;4971159;28;20429;-65
2021/08/10 10:34:21;;;;;;;3.57;2.80;;;28.80;92.90;;;;;;4990406;28;20441;-65
2021/08/10 10:36:48;;;;;;;4.40;4.03;;;29.10;91.70;;;;;;4989098;28;20513;-64
2021/08/10 10:39:22;;;;;;;9.40;5.93;;;28.60;91.50;;;;;;4989275;28;20447;-65
2021/08/10 10:41:53;;;;;;;16.60;10.43;;;28.80;91.90;;;;;;4977636;28;20856;-65
2021/08/10 10:44:34;;;;;;;12.60;6.70;;;29.30;91.80;;;;;;4988986;28;20459;-65
2021/08/10 10:47:20;;;;;;;6.73;5.17;;;29.70;91.00;;;;;;4989566;28;20488;-65
2021/08/10 10:50:08;;;;;;;16.57;9.60;;;29.60;90.50;;;;;;4982609;28;20476;-64
2021/08/10 10:52:34;;;;;;;13.50;5.60;;;29.90;91.30;;;;;;4979826;28;20442;-64
2021/08/10 10:55:01;;;;;;;8.83;4.17;;;30.30;90.90;;;;;;4986089;28;20462;-65
2021/08/10 10:57:33;;;;;;;13.33;7.30;;;30.80;88.50;;;;;;4981662;28;20426;-65
2021/08/10 11:00:07;;;;;;;7.77;4.87;;;31.00;87.70;;;;;;4987979;28;20434;-64
2021/08/10 11:02:38;;;;;;;3.33;3.03;;;31.50;86.70;;;;;;4967730;28;20474;-64
2021/08/10 11:05:06;;;;;;;8.50;3.90;;;31.40;84.50;;;;;;4969871;28;20829;-64
2021/08/10 11:07:46;;;;;;;4.70;4.20;;;31.10;84.80;;;;;;4969847;28;20554;-64
2021/08/10 11:10:56;;;;;;;4.13;3.40;;;31.40;83.70;;;;;;4972515;28;20505;-64
2021/08/10 11:13:22;;;;;;;4.00;3.43;;;30.50;85.20;;;;;;4968101;28;20471;-64
2021/08/10 11:15:47;;;;;;;3.00;2.80;;;30.80;83.10;;;;;;4970101;28;20454;-64
2021/08/10 11:18:13;;;;;;;3.17;2.90;;;30.50;83.20;;;;;;4969684;28;20235;-64
2021/08/10 11:20:39;;;;;;;2.80;2.53;;;30.10;85.30;;;;;;4969080;28;20195;-64
2021/08/10 11:23:21;;;;;;;3.20;2.90;;;29.90;85.60;;;;;;4982275;28;20680;-64
2021/08/10 11:25:48;;;;;;;3.27;2.97;;;30.10;85.00;;;;;;4989343;28;20839;-64
2021/08/10 11:28:23;;;;;;;5.50;2.70;;;30.40;85.50;;;;;;4988376;28;20431;-64
2021/08/10 11:30:49;;;;;;;3.20;2.80;;;30.40;84.30;;;;;;4975312;28;20887;-64
2021/08/10 11:33:37;;;;;;;5.70;4.93;;;30.90;83.50;;;;;;4967539;28;20930;-64
2021/08/10 11:36:11;;;;;;;5.17;3.20;;;30.80;83.30;;;;;;4969919;28;20239;-64
2021/08/10 11:38:52;;;;;;;3.20;2.33;;;30.60;82.80;;;;;;4969319;28;20418;-64
2021/08/10 11:41:29;;;;;;;3.20;2.90;;;30.50;83.60;;;;;;4969153;28;20445;-64
2021/08/10 11:43:59;;;;;;;4.50;3.00;;;30.60;82.90;;;;;;4988597;28;20453;-64
2021/08/10 11:46:36;;;;;;;3.20;2.50;;;31.10;81.50;;;;;;4989311;28;20513;-64
2021/08/10 11:49:07;;;;;;;4.13;2.90;;;31.10;80.30;;;;;;4989981;28;20484;-65
2021/08/10 11:51:39;;;;;;;3.70;2.90;;;31.10;80.20;;;;;;4987481;28;20444;-64
2021/08/10 11:54:10;;;;;;;2.90;2.70;;;31.70;79.10;;;;;;4973438;28;20821;-64
2021/08/10 11:56:38;;;;;;;5.37;3.30;;;32.10;77.70;;;;;;4980371;28;20924;-64
2021/08/10 11:59:25;;;;;;;4.80;2.80;;;31.60;77.70;;;;;;4991044;28;20437;-64
2021/08/10 12:01:51;;;;;;;3.73;3.43;;;31.50;78.00;;;;;;4974517;28;20470;-64
2021/08/10 12:04:25;;;;;;;3.23;2.97;;;31.50;78.00;;;;;;4972423;28;20458;-64
2021/08/10 12:06:53;;;;;;;3.13;2.87;;;31.00;79.70;;;;;;4973043;28;20470;-64
2021/08/10 12:09:22;;;;;;;2.60;2.40;;;30.90;79.80;;;;;;4973023;28;20420;-64
2021/08/10 12:11:53;;;;;;;3.73;3.13;;;30.70;79.20;;;;;;4972276;28;20424;-64
2021/08/10 12:14:21;;;;;;;5.83;4.13;;;30.60;78.90;;;;;;4987450;28;20472;-64
2021/08/10 12:16:57;;;;;;;3.80;3.13;;;30.80;79.70;;;;;;4992294;28;20423;-64
2021/08/10 12:19:39;;;;;;;3.33;3.13;;;30.80;79.10;;;;;;4987018;28;20466;-64
2021/08/10 12:22:17;;;;;;;4.73;3.20;;;31.10;80.10;;;;;;4979001;28;21817;-64
2021/08/10 12:24:43;;;;;;;3.43;3.23;;;31.20;79.20;;;;;;4991718;28;20467;-63
2021/08/10 12:27:11;;;;;;;2.90;2.70;;;30.80;78.20;;;;;;4991963;28;20835;-64
2021/08/10 12:29:48;;;;;;;3.47;3.17;;;30.40;78.30;;;;;;4988823;28;20435;-64
2021/08/10 12:32:22;;;;;;;4.40;3.37;;;30.10;80.10;;;;;;4968887;28;20513;-64
2021/08/10 12:34:48;;;;;;;2.83;2.63;;;29.80;80.60;;;;;;4972502;28;20957;-64
2021/08/10 12:37:14;;;;;;;3.27;2.97;;;29.70;80.50;;;;;;4972524;28;20428;-64
2021/08/10 12:39:44;;;;;;;3.37;2.90;;;29.90;81.20;;;;;;4972142;28;20176;-64
2021/08/10 12:42:11;;;;;;;3.47;3.17;;;29.80;81.40;;;;;;4968717;28;20572;-64
2021/08/10 12:44:37;;;;;;;4.00;3.23;;;30.00;81.20;;;;;;4972376;28;20530;-64
2021/08/10 12:47:06;;;;;;;4.57;2.93;;;30.60;78.80;;;;;;4972773;28;20518;-64
2021/08/10 12:49:34;;;;;;;3.87;3.30;;;30.90;78.00;;;;;;4972557;28;20431;-64
2021/08/10 12:52:03;;;;;;;3.50;3.20;;;31.80;77.20;;;;;;4979032;28;20450;-64
2021/08/10 12:54:31;;;;;;;3.60;3.30;;;32.10;78.20;;;;;;4973964;28;20545;-64